KFLO

Florence Regional Airport

Florence, South Carolina, USA
METAR KFLO 221005Z AUTO 00000KT 4SM BR SCT004 21/20 A3013 RMK AO2 T02110200
Observed Flight Rules
May-22 @ 10:05 UTC (13 minutes ago) Marginal Visual Flight Rules
Visibility Clouds Conditions
4 miles
  • Scattered at 400' AGL
  • Mist
Temperatures Readings
Current 21°C / 70°F
Dewpoint 20°C / 68°F
Humidity 94%
Altimeter 30.13" Hg
Pressure 1020 hPa
Elevation 44
METAR KFLO 221005Z AUTO 00000KT 4SM BR SCT004 21/20 A3013 RMK AO2 T02110200
Observed Flight Rules
May-22 @ 10:05 UTC
(13 minutes ago)
MVFR
Clouds
  • Scattered at 400' AGL
Conditions
  • Mist
Temperature Dewpoint
21°C / 70°F 20°C / 68°F
Humidity Altimeter Pressure
94% 30.13" Hg 1020 hPa